sensor_id;sensor_type;location;lat;lon;timestamp;pressure;altitude;pressure_sealevel;temperature;humidity
23229;BME280;11783;50.350;6.576;2024-01-10T00:01:13;97122.34;;;-9.68;100.00
23229;BME280;11783;50.350;6.576;2024-01-10T00:03:39;97121.81;;;-9.73;100.00
23229;BME280;11783;50.350;6.576;2024-01-10T00:06:05;97114.81;;;-9.71;100.00
23229;BME280;11783;50.350;6.576;2024-01-10T00:08:31;97118.72;;;-9.79;100.00
23229;BME280;11783;50.350;6.576;2024-01-10T00:10:56;97114.41;;;-9.92;100.00
23229;BME280;11783;50.350;6.576;2024-01-10T00:13:22;97122.31;;;-9.81;100.00
23229;BME280;11783;50.350;6.576;2024-01-10T00:15:48;97119.44;;;-9.77;100.00
23229;BME280;11783;50.350;6.576;2024-01-10T00:18:13;97118.09;;;-9.96;100.00
23229;BME280;11783;50.350;6.576;2024-01-10T00:20:39;97117.09;;;-9.94;100.00
23229;BME280;11783;50.350;6.576;2024-01-10T00:23:05;97108.22;;;-10.02;100.00
23229;BME280;11783;50.350;6.576;2024-01-10T00:25:32;97107.03;;;-10.11;100.00
23229;BME280;11783;50.350;6.576;2024-01-10T00:27:57;97109.56;;;-9.97;100.00
23229;BME280;11783;50.350;6.576;2024-01-10T00:30:23;97104.13;;;-9.92;100.00
23229;BME280;11783;50.350;6.576;2024-01-10T00:32:48;97113.78;;;-9.96;100.00
23229;BME280;11783;50.350;6.576;2024-01-10T00:35:13;97111.41;;;-9.99;100.00
23229;BME280;11783;50.350;6.576;2024-01-10T00:37:39;97115.81;;;-10.01;100.00
23229;BME280;11783;50.350;6.576;2024-01-10T00:40:05;97111.59;;;-10.02;100.00
23229;BME280;11783;50.350;6.576;2024-01-10T00:42:31;97103.22;;;-10.05;100.00
23229;BME280;11783;50.350;6.576;2024-01-10T00:44:56;97103.69;;;-9.99;100.00
23229;BME280;11783;50.350;6.576;2024-01-10T00:47:22;97101.50;;;-10.05;100.00
23229;BME280;11783;50.350;6.576;2024-01-10T00:49:47;97096.53;;;-10.08;100.00
23229;BME280;11783;50.350;6.576;2024-01-10T00:52:13;97089.41;;;-10.17;100.00
23229;BME280;11783;50.350;6.576;2024-01-10T00:54:38;97088.19;;;-10.12;100.00
23229;BME280;11783;50.350;6.576;2024-01-10T00:57:03;97079.13;;;-10.17;100.00
23229;BME280;11783;50.350;6.576;2024-01-10T00:59:29;97085.47;;;-10.23;100.00
23229;BME280;11783;50.350;6.576;2024-01-10T01:01:54;97084.50;;;-10.08;100.00
23229;BME280;11783;50.350;6.576;2024-01-10T01:04:20;97083.34;;;-10.16;100.00
23229;BME280;11783;50.350;6.576;2024-01-10T01:06:46;97081.69;;;-10.17;100.00
23229;BME280;11783;50.350;6.576;2024-01-10T01:09:11;97081.50;;;-10.14;100.00
23229;BME280;11783;50.350;6.576;2024-01-10T01:11:40;97074.00;;;-10.17;100.00
23229;BME280;11783;50.350;6.576;2024-01-10T01:14:06;97080.78;;;-10.16;100.00
23229;BME280;11783;50.350;6.576;2024-01-10T01:16:32;97082.22;;;-10.12;100.00
23229;BME280;11783;50.350;6.576;2024-01-10T01:18:57;97080.34;;;-10.23;100.00
23229;BME280;11783;50.350;6.576;2024-01-10T01:21:23;97080.72;;;-10.29;100.00
23229;BME280;11783;50.350;6.576;2024-01-10T01:23:48;97080.28;;;-10.35;100.00
23229;BME280;11783;50.350;6.576;2024-01-10T01:26:14;97083.59;;;-10.33;100.00
23229;BME280;11783;50.350;6.576;2024-01-10T01:28:40;97087.53;;;-10.42;100.00
23229;BME280;11783;50.350;6.576;2024-01-10T01:31:05;97082.97;;;-10.37;100.00
23229;BME280;11783;50.350;6.576;2024-01-10T01:33:31;97086.59;;;-10.27;100.00
23229;BME280;11783;50.350;6.576;2024-01-10T01:35:56;97082.13;;;-10.37;100.00
23229;BME280;11783;50.350;6.576;2024-01-10T01:38:22;97087.09;;;-10.34;100.00
23229;BME280;11783;50.350;6.576;2024-01-10T01:40:48;97081.66;;;-10.30;100.00
23229;BME280;11783;50.350;6.576;2024-01-10T01:43:21;97084.59;;;-10.36;100.00
23229;BME280;11783;50.350;6.576;2024-01-10T01:45:48;97092.66;;;-10.42;100.00
23229;BME280;11783;50.350;6.576;2024-01-10T01:48:15;97090.91;;;-10.42;100.00
23229;BME280;11783;50.350;6.576;2024-01-10T01:50:40;97088.09;;;-10.51;100.00
23229;BME280;11783;50.350;6.576;2024-01-10T01:53:06;97082.75;;;-10.62;100.00
23229;BME280;11783;50.350;6.576;2024-01-10T01:55:32;97082.22;;;-10.67;100.00
23229;BME280;11783;50.350;6.576;2024-01-10T01:57:57;97080.22;;;-10.77;100.00
23229;BME280;11783;50.350;6.576;2024-01-10T02:00:22;97082.69;;;-10.75;100.00
23229;BME280;11783;50.350;6.576;2024-01-10T02:02:48;97075.97;;;-10.63;100.00
23229;BME280;11783;50.350;6.576;2024-01-10T02:05:14;97072.41;;;-10.61;100.00
23229;BME280;11783;50.350;6.576;2024-01-10T02:07:40;97070.69;;;-10.75;100.00
23229;BME280;11783;50.350;6.576;2024-01-10T02:10:06;97066.09;;;-10.70;100.00
23229;BME280;11783;50.350;6.576;2024-01-10T02:12:32;97070.59;;;-10.73;100.00
23229;BME280;11783;50.350;6.576;2024-01-10T02:14:59;97072.34;;;-10.59;100.00
23229;BME280;11783;50.350;6.576;2024-01-10T02:17:24;97064.16;;;-10.52;100.00
23229;BME280;11783;50.350;6.576;2024-01-10T02:20:07;97075.44;;;-10.54;100.00
23229;BME280;11783;50.350;6.576;2024-01-10T02:22:33;97062.31;;;-10.64;100.00
23229;BME280;11783;50.350;6.576;2024-01-10T02:24:58;97063.50;;;-10.70;100.00
23229;BME280;11783;50.350;6.576;2024-01-10T02:27:24;97057.56;;;-10.70;100.00
23229;BME280;11783;50.350;6.576;2024-01-10T02:29:50;97054.88;;;-10.68;100.00
23229;BME280;11783;50.350;6.576;2024-01-10T02:32:16;97049.31;;;-10.75;100.00
23229;BME280;11783;50.350;6.576;2024-01-10T02:34:41;97048.66;;;-10.64;100.00
23229;BME280;11783;50.350;6.576;2024-01-10T02:37:07;97055.00;;;-10.70;100.00
23229;BME280;11783;50.350;6.576;2024-01-10T02:39:32;97047.81;;;-10.65;100.00
23229;BME280;11783;50.350;6.576;2024-01-10T02:41:57;97036.47;;;-10.75;100.00
23229;BME280;11783;50.350;6.576;2024-01-10T02:44:23;97041.78;;;-10.78;100.00
23229;BME280;11783;50.350;6.576;2024-01-10T02:46:48;97044.16;;;-10.89;100.00
23229;BME280;11783;50.350;6.576;2024-01-10T02:49:13;97046.63;;;-10.88;100.00
23229;BME280;11783;50.350;6.576;2024-01-10T02:51:39;97039.84;;;-10.89;100.00
23229;BME280;11783;50.350;6.576;2024-01-10T02:54:04;97035.19;;;-10.96;100.00
23229;BME280;11783;50.350;6.576;2024-01-10T02:56:30;97031.22;;;-10.88;100.00
23229;BME280;11783;50.350;6.576;2024-01-10T02:58:55;97031.50;;;-10.92;100.00
23229;BME280;11783;50.350;6.576;2024-01-10T03:01:20;97024.81;;;-10.81;100.00
23229;BME280;11783;50.350;6.576;2024-01-10T03:03:46;97016.28;;;-10.81;100.00
23229;BME280;11783;50.350;6.576;2024-01-10T03:06:11;97019.84;;;-10.84;100.00
23229;BME280;11783;50.350;6.576;2024-01-10T03:08:37;97025.72;;;-10.82;100.00
23229;BME280;11783;50.350;6.576;2024-01-10T03:11:02;97014.09;;;-10.73;100.00
23229;BME280;11783;50.350;6.576;2024-01-10T03:13:28;97025.28;;;-10.88;100.00
23229;BME280;11783;50.350;6.576;2024-01-10T03:15:53;97025.81;;;-10.83;100.00
23229;BME280;11783;50.350;6.576;2024-01-10T03:18:18;97016.13;;;-10.78;100.00
23229;BME280;11783;50.350;6.576;2024-01-10T03:20:44;97019.03;;;-10.70;100.00
23229;BME280;11783;50.350;6.576;2024-01-10T03:23:09;97026.28;;;-10.77;100.00
23229;BME280;11783;50.350;6.576;2024-01-10T03:25:34;97026.19;;;-10.75;100.00
23229;BME280;11783;50.350;6.576;2024-01-10T03:28:00;97040.78;;;-10.76;100.00
23229;BME280;11783;50.350;6.576;2024-01-10T03:30:25;97026.19;;;-10.75;100.00
23229;BME280;11783;50.350;6.576;2024-01-10T03:32:51;97024.34;;;-10.73;100.00
23229;BME280;11783;50.350;6.576;2024-01-10T03:35:16;97024.50;;;-10.62;100.00
23229;BME280;11783;50.350;6.576;2024-01-10T03:37:41;97017.66;;;-10.76;100.00
23229;BME280;11783;50.350;6.576;2024-01-10T03:40:07;97014.38;;;-10.78;100.00
23229;BME280;11783;50.350;6.576;2024-01-10T03:42:33;97010.78;;;-10.75;100.00
23229;BME280;11783;50.350;6.576;2024-01-10T03:44:58;97011.31;;;-10.70;100.00
23229;BME280;11783;50.350;6.576;2024-01-10T03:47:24;97002.91;;;-10.86;100.00
23229;BME280;11783;50.350;6.576;2024-01-10T03:49:49;96999.50;;;-10.87;100.00
23229;BME280;11783;50.350;6.576;2024-01-10T03:52:15;97016.75;;;-10.89;100.00
23229;BME280;11783;50.350;6.576;2024-01-10T03:54:40;97010.69;;;-10.88;100.00
23229;BME280;11783;50.350;6.576;2024-01-10T03:57:06;97012.25;;;-10.85;100.00
23229;BME280;11783;50.350;6.576;2024-01-10T03:59:31;97005.91;;;-10.80;100.00
23229;BME280;11783;50.350;6.576;2024-01-10T04:01:58;97007.50;;;-10.77;100.00
23229;BME280;11783;50.350;6.576;2024-01-10T04:04:25;97004.25;;;-10.81;100.00
23229;BME280;11783;50.350;6.576;2024-01-10T04:06:52;97010.22;;;-10.80;100.00
23229;BME280;11783;50.350;6.576;2024-01-10T04:09:17;97008.31;;;-10.77;100.00
23229;BME280;11783;50.350;6.576;2024-01-10T04:11:42;97008.41;;;-10.78;100.00
23229;BME280;11783;50.350;6.576;2024-01-10T04:14:08;97006.81;;;-10.81;100.00
23229;BME280;11783;50.350;6.576;2024-01-10T04:16:33;97001.06;;;-10.84;100.00
23229;BME280;11783;50.350;6.576;2024-01-10T04:18:58;97005.66;;;-10.89;100.00
23229;BME280;11783;50.350;6.576;2024-01-10T04:21:24;96994.47;;;-10.88;100.00
23229;BME280;11783;50.350;6.576;2024-01-10T04:23:49;97010.34;;;-10.96;100.00
23229;BME280;11783;50.350;6.576;2024-01-10T04:26:17;96996.31;;;-10.90;100.00
23229;BME280;11783;50.350;6.576;2024-01-10T04:28:42;97009.13;;;-10.90;100.00
23229;BME280;11783;50.350;6.576;2024-01-10T04:31:08;97007.28;;;-11.03;100.00
23229;BME280;11783;50.350;6.576;2024-01-10T04:33:34;97012.63;;;-11.06;100.00
23229;BME280;11783;50.350;6.576;2024-01-10T04:35:59;97016.09;;;-11.07;100.00
23229;BME280;11783;50.350;6.576;2024-01-10T04:38:25;97004.09;;;-11.06;100.00
23229;BME280;11783;50.350;6.576;2024-01-10T04:40:52;97004.56;;;-11.14;100.00
23229;BME280;11783;50.350;6.576;2024-01-10T04:43:18;97004.53;;;-11.00;100.00
23229;BME280;11783;50.350;6.576;2024-01-10T04:45:43;97007.84;;;-10.97;100.00
23229;BME280;11783;50.350;6.576;2024-01-10T04:48:08;96998.69;;;-11.02;100.00
23229;BME280;11783;50.350;6.576;2024-01-10T04:50:34;96999.31;;;-10.98;100.00
23229;BME280;11783;50.350;6.576;2024-01-10T04:53:00;96989.34;;;-10.88;100.00
23229;BME280;11783;50.350;6.576;2024-01-10T04:55:25;96988.31;;;-10.86;100.00
23229;BME280;11783;50.350;6.576;2024-01-10T04:57:50;96994.91;;;-10.82;100.00
23229;BME280;11783;50.350;6.576;2024-01-10T05:00:16;96987.06;;;-10.93;100.00
23229;BME280;11783;50.350;6.576;2024-01-10T05:02:41;96986.31;;;-10.95;100.00
23229;BME280;11783;50.350;6.576;2024-01-10T05:05:07;96990.78;;;-10.84;100.00
23229;BME280;11783;50.350;6.576;2024-01-10T05:07:32;96982.34;;;-10.86;100.00
23229;BME280;11783;50.350;6.576;2024-01-10T05:09:58;96996.50;;;-10.93;100.00
23229;BME280;11783;50.350;6.576;2024-01-10T05:12:23;96998.34;;;-10.95;100.00
23229;BME280;11783;50.350;6.576;2024-01-10T05:14:49;96991.25;;;-11.06;100.00
23229;BME280;11783;50.350;6.576;2024-01-10T05:17:14;96993.19;;;-11.10;100.00
23229;BME280;11783;50.350;6.576;2024-01-10T05:19:39;96995.38;;;-11.04;100.00
23229;BME280;11783;50.350;6.576;2024-01-10T05:22:05;97002.16;;;-11.03;100.00
23229;BME280;11783;50.350;6.576;2024-01-10T05:24:31;96992.91;;;-10.91;100.00
23229;BME280;11783;50.350;6.576;2024-01-10T05:26:56;96990.69;;;-10.83;100.00
23229;BME280;11783;50.350;6.576;2024-01-10T05:29:22;96983.63;;;-10.79;100.00
23229;BME280;11783;50.350;6.576;2024-01-10T05:31:49;96981.16;;;-10.81;100.00
23229;BME280;11783;50.350;6.576;2024-01-10T05:34:14;96990.25;;;-10.89;100.00
23229;BME280;11783;50.350;6.576;2024-01-10T05:36:40;96990.97;;;-10.87;100.00
23229;BME280;11783;50.350;6.576;2024-01-10T05:39:05;96995.38;;;-10.75;100.00
23229;BME280;11783;50.350;6.576;2024-01-10T05:41:30;96980.78;;;-10.75;100.00
23229;BME280;11783;50.350;6.576;2024-01-10T05:43:56;96982.06;;;-10.82;100.00
23229;BME280;11783;50.350;6.576;2024-01-10T05:46:21;96975.91;;;-10.79;100.00
23229;BME280;11783;50.350;6.576;2024-01-10T05:48:47;96991.69;;;-10.71;100.00
23229;BME280;11783;50.350;6.576;2024-01-10T05:51:13;96988.59;;;-10.76;100.00
23229;BME280;11783;50.350;6.576;2024-01-10T05:53:39;96978.31;;;-10.76;100.00
23229;BME280;11783;50.350;6.576;2024-01-10T05:56:05;96979.69;;;-10.71;100.00
23229;BME280;11783;50.350;6.576;2024-01-10T05:58:31;96976.84;;;-10.80;100.00
23229;BME280;11783;50.350;6.576;2024-01-10T06:00:56;96971.53;;;-10.77;100.00
23229;BME280;11783;50.350;6.576;2024-01-10T06:03:22;96983.81;;;-10.68;100.00
23229;BME280;11783;50.350;6.576;2024-01-10T06:05:47;96979.16;;;-10.76;100.00
23229;BME280;11783;50.350;6.576;2024-01-10T06:08:13;96979.97;;;-10.75;100.00
23229;BME280;11783;50.350;6.576;2024-01-10T06:10:39;96972.81;;;-10.70;100.00
23229;BME280;11783;50.350;6.576;2024-01-10T06:13:05;96971.97;;;-10.71;100.00
23229;BME280;11783;50.350;6.576;2024-01-10T06:15:30;96978.03;;;-10.72;100.00
23229;BME280;11783;50.350;6.576;2024-01-10T06:17:55;96975.91;;;-10.65;100.00
23229;BME280;11783;50.350;6.576;2024-01-10T06:20:21;96974.34;;;-10.67;100.00
23229;BME280;11783;50.350;6.576;2024-01-10T06:22:46;96968.69;;;-10.73;100.00
23229;BME280;11783;50.350;6.576;2024-01-10T06:25:12;96967.13;;;-10.75;100.00
23229;BME280;11783;50.350;6.576;2024-01-10T06:27:37;96972.72;;;-10.83;100.00
23229;BME280;11783;50.350;6.576;2024-01-10T06:30:03;96977.84;;;-10.83;100.00
23229;BME280;11783;50.350;6.576;2024-01-10T06:32:28;96984.63;;;-10.82;100.00
23229;BME280;11783;50.350;6.576;2024-01-10T06:34:54;96983.09;;;-10.84;100.00
23229;BME280;11783;50.350;6.576;2024-01-10T06:37:19;96981.00;;;-10.78;100.00
23229;BME280;11783;50.350;6.576;2024-01-10T06:39:44;96978.03;;;-10.72;100.00
23229;BME280;11783;50.350;6.576;2024-01-10T06:42:10;96990.59;;;-10.67;100.00
23229;BME280;11783;50.350;6.576;2024-01-10T06:44:37;96984.09;;;-10.73;100.00
23229;BME280;11783;50.350;6.576;2024-01-10T06:47:03;96988.03;;;-10.67;100.00
23229;BME280;11783;50.350;6.576;2024-01-10T06:49:29;96983.28;;;-10.87;100.00
23229;BME280;11783;50.350;6.576;2024-01-10T06:51:54;96975.47;;;-10.86;100.00
23229;BME280;11783;50.350;6.576;2024-01-10T06:54:20;96985.31;;;-10.92;100.00
23229;BME280;11783;50.350;6.576;2024-01-10T06:56:45;96979.53;;;-10.96;100.00
23229;BME280;11783;50.350;6.576;2024-01-10T06:59:11;96983.09;;;-10.84;100.00
23229;BME280;11783;50.350;6.576;2024-01-10T07:01:37;96985.09;;;-10.75;100.00
23229;BME280;11783;50.350;6.576;2024-01-10T07:04:03;96983.16;;;-10.72;100.00
23229;BME280;11783;50.350;6.576;2024-01-10T07:06:30;96984.00;;;-10.71;100.00
23229;BME280;11783;50.350;6.576;2024-01-10T07:08:55;96988.75;;;-10.65;100.00
23229;BME280;11783;50.350;6.576;2024-01-10T07:11:20;96985.25;;;-10.64;100.00
23229;BME280;11783;50.350;6.576;2024-01-10T07:13:46;96992.59;;;-10.58;100.00
23229;BME280;11783;50.350;6.576;2024-01-10T07:16:11;96990.19;;;-10.61;100.00
23229;BME280;11783;50.350;6.576;2024-01-10T07:18:40;96991.84;;;-10.60;100.00
23229;BME280;11783;50.350;6.576;2024-01-10T07:21:05;96997.84;;;-10.59;100.00
23229;BME280;11783;50.350;6.576;2024-01-10T07:23:31;96997.34;;;-10.52;100.00
23229;BME280;11783;50.350;6.576;2024-01-10T07:25:57;96987.28;;;-10.55;100.00
23229;BME280;11783;50.350;6.576;2024-01-10T07:28:23;96995.50;;;-10.50;100.00
23229;BME280;11783;50.350;6.576;2024-01-10T07:30:48;96994.41;;;-10.46;100.00
23229;BME280;11783;50.350;6.576;2024-01-10T07:33:13;97005.88;;;-10.51;100.00
23229;BME280;11783;50.350;6.576;2024-01-10T07:35:39;97004.69;;;-10.60;100.00
23229;BME280;11783;50.350;6.576;2024-01-10T07:38:05;97000.41;;;-10.59;100.00
23229;BME280;11783;50.350;6.576;2024-01-10T07:40:34;97013.16;;;-10.58;100.00
23229;BME280;11783;50.350;6.576;2024-01-10T07:42:59;97012.69;;;-10.64;100.00
23229;BME280;11783;50.350;6.576;2024-01-10T07:45:25;97015.88;;;-10.61;100.00
23229;BME280;11783;50.350;6.576;2024-01-10T07:47:51;97012.16;;;-10.70;100.00
23229;BME280;11783;50.350;6.576;2024-01-10T07:50:16;97013.59;;;-10.65;100.00
23229;BME280;11783;50.350;6.576;2024-01-10T07:52:43;97021.59;;;-10.56;100.00
23229;BME280;11783;50.350;6.576;2024-01-10T07:55:09;97012.13;;;-10.55;100.00
23229;BME280;11783;50.350;6.576;2024-01-10T07:57:35;97013.31;;;-10.61;100.00
23229;BME280;11783;50.350;6.576;2024-01-10T08:00:05;97016.19;;;-10.65;100.00
23229;BME280;11783;50.350;6.576;2024-01-10T08:02:33;97017.38;;;-10.57;100.00
23229;BME280;11783;50.350;6.576;2024-01-10T08:05:00;97015.81;;;-10.59;100.00
23229;BME280;11783;50.350;6.576;2024-01-10T08:07:25;97024.41;;;-10.60;100.00
23229;BME280;11783;50.350;6.576;2024-01-10T08:09:51;97030.31;;;-10.58;100.00
23229;BME280;11783;50.350;6.576;2024-01-10T08:12:17;97025.72;;;-10.53;100.00
23229;BME280;11783;50.350;6.576;2024-01-10T08:14:43;97031.69;;;-10.53;100.00
23229;BME280;11783;50.350;6.576;2024-01-10T08:17:11;97028.72;;;-10.47;100.00
23229;BME280;11783;50.350;6.576;2024-01-10T08:19:36;97035.28;;;-10.28;100.00
23229;BME280;11783;50.350;6.576;2024-01-10T08:22:03;97021.38;;;-10.38;100.00
23229;BME280;11783;50.350;6.576;2024-01-10T08:24:28;97028.16;;;-10.37;100.00
23229;BME280;11783;50.350;6.576;2024-01-10T08:26:54;97030.28;;;-10.17;100.00
23229;BME280;11783;50.350;6.576;2024-01-10T08:29:19;97031.16;;;-10.04;100.00
23229;BME280;11783;50.350;6.576;2024-01-10T08:31:45;97020.25;;;-10.08;100.00
23229;BME280;11783;50.350;6.576;2024-01-10T08:34:11;97028.97;;;-10.10;100.00
23229;BME280;11783;50.350;6.576;2024-01-10T08:36:37;97030.75;;;-9.84;100.00
23229;BME280;11783;50.350;6.576;2024-01-10T08:39:03;97029.91;;;-9.84;100.00
23229;BME280;11783;50.350;6.576;2024-01-10T08:41:29;97027.41;;;-9.86;100.00
23229;BME280;11783;50.350;6.576;2024-01-10T08:43:54;97028.25;;;-9.85;100.00
23229;BME280;11783;50.350;6.576;2024-01-10T08:46:20;97030.34;;;-9.78;100.00
23229;BME280;11783;50.350;6.576;2024-01-10T08:48:46;97037.63;;;-9.84;100.00
23229;BME280;11783;50.350;6.576;2024-01-10T08:51:12;97034.75;;;-9.80;100.00
23229;BME280;11783;50.350;6.576;2024-01-10T08:53:41;97026.13;;;-9.79;100.00
23229;BME280;11783;50.350;6.576;2024-01-10T08:56:06;97033.47;;;-9.60;100.00
23229;BME280;11783;50.350;6.576;2024-01-10T08:58:32;97033.28;;;-9.57;100.00
23229;BME280;11783;50.350;6.576;2024-01-10T09:00:57;97028.53;;;-9.50;100.00
23229;BME280;11783;50.350;6.576;2024-01-10T09:03:22;97031.25;;;-9.39;100.00
23229;BME280;11783;50.350;6.576;2024-01-10T09:05:48;97030.44;;;-9.14;100.00
23229;BME280;11783;50.350;6.576;2024-01-10T09:08:14;97034.56;;;-9.11;100.00
23229;BME280;11783;50.350;6.576;2024-01-10T09:10:41;97037.88;;;-8.84;100.00
23229;BME280;11783;50.350;6.576;2024-01-10T09:13:06;97040.13;;;-8.79;100.00
23229;BME280;11783;50.350;6.576;2024-01-10T09:15:32;97034.69;;;-8.88;100.00
23229;BME280;11783;50.350;6.576;2024-01-10T09:17:57;97034.16;;;-8.80;100.00
23229;BME280;11783;50.350;6.576;2024-01-10T09:20:23;97035.19;;;-8.70;100.00
23229;BME280;11783;50.350;6.576;2024-01-10T09:22:49;97043.94;;;-8.60;100.00
23229;BME280;11783;50.350;6.576;2024-01-10T09:25:14;97043.53;;;-8.53;100.00
23229;BME280;11783;50.350;6.576;2024-01-10T09:27:40;97042.66;;;-8.41;100.00
23229;BME280;11783;50.350;6.576;2024-01-10T09:30:09;97038.78;;;-8.23;100.00
23229;BME280;11783;50.350;6.576;2024-01-10T09:32:35;97040.00;;;-8.16;100.00
23229;BME280;11783;50.350;6.576;2024-01-10T09:35:01;97044.28;;;-8.04;100.00
23229;BME280;11783;50.350;6.576;2024-01-10T09:37:26;97045.53;;;-7.97;100.00
23229;BME280;11783;50.350;6.576;2024-01-10T09:39:52;97050.94;;;-7.88;100.00
23229;BME280;11783;50.350;6.576;2024-01-10T09:42:19;97047.16;;;-7.72;100.00
23229;BME280;11783;50.350;6.576;2024-01-10T09:44:46;97042.66;;;-7.57;100.00
23229;BME280;11783;50.350;6.576;2024-01-10T09:47:13;97050.25;;;-7.43;100.00
23229;BME280;11783;50.350;6.576;2024-01-10T09:49:40;97051.44;;;-7.36;100.00
23229;BME280;11783;50.350;6.576;2024-01-10T09:52:10;97046.66;;;-7.18;100.00
23229;BME280;11783;50.350;6.576;2024-01-10T09:54:37;97051.03;;;-7.07;100.00
23229;BME280;11783;50.350;6.576;2024-01-10T09:57:03;97051.19;;;-6.97;100.00
23229;BME280;11783;50.350;6.576;2024-01-10T09:59:29;97053.56;;;-6.83;100.00
23229;BME280;11783;50.350;6.576;2024-01-10T10:01:56;97048.03;;;-6.79;100.00
23229;BME280;11783;50.350;6.576;2024-01-10T10:04:27;97048.53;;;-6.62;100.00
23229;BME280;11783;50.350;6.576;2024-01-10T10:06:58;97042.53;;;-6.52;100.00
23229;BME280;11783;50.350;6.576;2024-01-10T10:09:25;97047.34;;;-6.36;100.00
23229;BME280;11783;50.350;6.576;2024-01-10T10:11:56;97038.75;;;-6.25;100.00
23229;BME280;11783;50.350;6.576;2024-01-10T10:14:28;97029.94;;;-6.12;100.00
23229;BME280;11783;50.350;6.576;2024-01-10T10:16:54;97032.94;;;-5.95;100.00
23229;BME280;11783;50.350;6.576;2024-01-10T10:19:25;97027.94;;;-5.76;99.98
23229;BME280;11783;50.350;6.576;2024-01-10T10:21:51;97023.16;;;-5.60;98.59
23229;BME280;11783;50.350;6.576;2024-01-10T10:24:16;97024.63;;;-5.46;97.19
23229;BME280;11783;50.350;6.576;2024-01-10T10:26:42;97029.41;;;-5.30;98.51
23229;BME280;11783;50.350;6.576;2024-01-10T10:29:09;97029.53;;;-5.11;94.76
23229;BME280;11783;50.350;6.576;2024-01-10T10:31:35;97034.97;;;-4.93;93.25
23229;BME280;11783;50.350;6.576;2024-01-10T10:34:01;97030.91;;;-4.86;93.65
23229;BME280;11783;50.350;6.576;2024-01-10T10:36:28;97026.22;;;-4.71;88.78
23229;BME280;11783;50.350;6.576;2024-01-10T10:38:54;97017.81;;;-4.64;91.62
23229;BME280;11783;50.350;6.576;2024-01-10T10:41:21;97013.34;;;-4.52;91.90
23229;BME280;11783;50.350;6.576;2024-01-10T10:43:46;97014.50;;;-4.35;89.71
23229;BME280;11783;50.350;6.576;2024-01-10T10:46:13;97018.53;;;-4.21;89.32
23229;BME280;11783;50.350;6.576;2024-01-10T10:48:38;97016.53;;;-4.08;89.73
23229;BME280;11783;50.350;6.576;2024-01-10T10:51:08;97014.63;;;-3.97;90.18
23229;BME280;11783;50.350;6.576;2024-01-10T10:53:38;97017.94;;;-3.85;88.92
23229;BME280;11783;50.350;6.576;2024-01-10T10:56:06;97006.88;;;-3.68;85.65
23229;BME280;11783;50.350;6.576;2024-01-10T10:58:34;97010.56;;;-3.60;87.09
23229;BME280;11783;50.350;6.576;2024-01-10T11:01:01;97007.03;;;-3.50;88.91
23229;BME280;11783;50.350;6.576;2024-01-10T11:03:28;97005.25;;;-3.49;87.29
23229;BME280;11783;50.350;6.576;2024-01-10T11:05:55;97011.13;;;-3.38;82.69
23229;BME280;11783;50.350;6.576;2024-01-10T11:08:21;97007.69;;;-3.38;83.57
23229;BME280;11783;50.350;6.576;2024-01-10T11:10:50;97008.38;;;-3.36;85.02
23229;BME280;11783;50.350;6.576;2024-01-10T11:19:04;96996.31;;;-3.08;84.03
23229;BME280;11783;50.350;6.576;2024-01-10T11:24:18;97000.97;;;-2.92;83.98
23229;BME280;11783;50.350;6.576;2024-01-10T11:26:45;96988.03;;;-2.75;81.75
23229;BME280;11783;50.350;6.576;2024-01-10T11:29:11;96989.81;;;-2.75;84.09
23229;BME280;11783;50.350;6.576;2024-01-10T11:31:38;96982.41;;;-2.70;83.81
23229;BME280;11783;50.350;6.576;2024-01-10T11:34:04;96978.31;;;-2.72;85.37
23229;BME280;11783;50.350;6.576;2024-01-10T11:36:29;96985.97;;;-2.71;85.57
23229;BME280;11783;50.350;6.576;2024-01-10T11:38:58;96987.59;;;-2.70;84.92
23229;BME280;11783;50.350;6.576;2024-01-10T11:41:32;96985.00;;;-2.60;84.22
23229;BME280;11783;50.350;6.576;2024-01-10T11:46:45;96985.47;;;-2.47;84.68
23229;BME280;11783;50.350;6.576;2024-01-10T11:49:16;96978.59;;;-2.38;83.63
23229;BME280;11783;50.350;6.576;2024-01-10T11:51:42;96969.28;;;-2.41;82.89
23229;BME280;11783;50.350;6.576;2024-01-10T11:54:08;96977.63;;;-2.37;83.31
23229;BME280;11783;50.350;6.576;2024-01-10T11:56:40;96973.78;;;-2.33;83.47
23229;BME280;11783;50.350;6.576;2024-01-10T11:59:08;96973.44;;;-2.21;83.67
23229;BME280;11783;50.350;6.576;2024-01-10T12:01:35;96965.63;;;-2.21;83.24
23229;BME280;11783;50.350;6.576;2024-01-10T12:04:02;96967.50;;;-2.13;82.48
23229;BME280;11783;50.350;6.576;2024-01-10T12:06:29;96974.19;;;-2.10;81.61
23229;BME280;11783;50.350;6.576;2024-01-10T12:08:55;96977.13;;;-1.96;81.75
23229;BME280;11783;50.350;6.576;2024-01-10T12:11:20;96977.41;;;-1.99;82.89
23229;BME280;11783;50.350;6.576;2024-01-10T12:13:47;96976.75;;;-2.01;81.80
23229;BME280;11783;50.350;6.576;2024-01-10T12:16:13;96986.56;;;-1.95;80.03
23229;BME280;11783;50.350;6.576;2024-01-10T12:18:43;96982.94;;;-2.02;78.83
23229;BME280;11783;50.350;6.576;2024-01-10T12:21:09;96978.13;;;-2.06;79.93
23229;BME280;11783;50.350;6.576;2024-01-10T12:23:37;96977.41;;;-1.99;81.47
23229;BME280;11783;50.350;6.576;2024-01-10T12:26:06;96984.13;;;-1.96;81.42
23229;BME280;11783;50.350;6.576;2024-01-10T12:28:34;96980.25;;;-1.92;80.97
23229;BME280;11783;50.350;6.576;2024-01-10T12:30:59;96985.63;;;-1.94;81.08
23229;BME280;11783;50.350;6.576;2024-01-10T12:33:25;96974.53;;;-1.96;80.14
23229;BME280;11783;50.350;6.576;2024-01-10T12:36:12;96983.53;;;-1.90;80.18
23229;BME280;11783;50.350;6.576;2024-01-10T12:38:40;96977.78;;;-1.94;81.78
23229;BME280;11783;50.350;6.576;2024-01-10T12:41:06;96978.63;;;-1.93;82.66
23229;BME280;11783;50.350;6.576;2024-01-10T12:43:34;96984.16;;;-1.78;80.12
23229;BME280;11783;50.350;6.576;2024-01-10T12:46:09;96980.06;;;-1.63;78.96
23229;BME280;11783;50.350;6.576;2024-01-10T12:48:40;96972.25;;;-1.63;80.27
23229;BME280;11783;50.350;6.576;2024-01-10T12:51:09;96976.84;;;-1.57;81.00